Time;durP1;ratioP1;P1;durP2;ratioP2;P2;SDS_P1;SDS_P2;PMS_P1;PMS_P2;Temp;Humidity;BMP_temperature;BMP_pressure;BME280_temperature;BME280_humidity;BME280_pressure;Samples;Min_cycle;Max_cycle;Signal;HPM_P1;HPM_P2
2023/07/26 00:01:53;;;;;;;;;;;;;;;13.76;100.00;101120.03;4989880;28;19920;-75
2023/07/26 00:04:18;;;;;;;;;;;;;;;13.58;100.00;101130.59;5012912;28;20404;-75
2023/07/26 00:06:44;;;;;;;;;;;;;;;13.46;100.00;101133.34;5034422;28;20602;-78
2023/07/26 00:09:09;;;;;;;;;;;;;;;13.39;100.00;101125.88;5017789;28;19932;-77
2023/07/26 00:11:35;;;;;;;;;;;;;;;13.22;100.00;101122.78;5017184;28;19940;-78
2023/07/26 00:14:01;;;;;;;;;;;;;;;13.22;100.00;101121.91;5038707;28;19929;-78
2023/07/26 00:16:26;;;;;;;;;;;;;;;13.14;100.00;101125.25;4999753;28;19937;-78
2023/07/26 00:18:51;;;;;;;;;;;;;;;13.15;100.00;101116.19;5038035;28;20218;-79
2023/07/26 00:21:16;;;;;;;;;;;;;;;13.17;100.00;101115.06;5005741;28;19932;-78
2023/07/26 00:23:42;;;;;;;;;;;;;;;13.17;100.00;101122.31;5017816;28;19925;-78
2023/07/26 00:26:07;;;;;;;;;;;;;;;13.12;100.00;101121.84;5019556;28;19932;-78
2023/07/26 00:28:32;;;;;;;;;;;;;;;13.01;100.00;101117.34;5013780;28;20413;-78
2023/07/26 00:30:58;;;;;;;;;;;;;;;12.94;100.00;101122.41;4996645;28;20295;-78
2023/07/26 00:33:23;;;;;;;;;;;;;;;12.95;100.00;101116.03;5017782;28;19925;-78
2023/07/26 00:35:48;;;;;;;;;;;;;;;12.91;100.00;101122.66;5006836;28;20371;-78
2023/07/26 00:38:13;;;;;;;;;;;;;;;12.89;100.00;101128.16;5010906;28;20371;-78
2023/07/26 00:40:39;;;;;;;;;;;;;;;12.84;100.00;101116.94;5011100;28;20366;-78
2023/07/26 00:43:05;;;;;;;;;;;;;;;12.67;100.00;101122.84;5011001;28;20279;-78
2023/07/26 00:45:31;;;;;;;;;;;;;;;12.60;100.00;101122.50;5007231;28;20303;-78
2023/07/26 00:47:56;;;;;;;;;;;;;;;12.58;100.00;101124.47;4994844;28;19921;-78
2023/07/26 00:50:22;;;;;;;;;;;;;;;12.60;100.00;101117.94;4995956;28;20372;-78
2023/07/26 00:52:47;;;;;;;;;;;;;;;12.67;100.00;101122.84;5032306;28;19921;-78
2023/07/26 00:55:12;;;;;;;;;;;;;;;12.70;100.00;101118.06;5028391;28;19948;-79
2023/07/26 00:57:37;;;;;;;;;;;;;;;12.70;100.00;101118.06;5032920;28;20140;-78
2023/07/26 01:00:03;;;;;;;;;;;;;;;12.63;100.00;101129.44;4996044;28;19921;-78
2023/07/26 01:02:28;;;;;;;;;;;;;;;12.59;100.00;101116.22;5012108;28;20386;-78
2023/07/26 01:04:54;;;;;;;;;;;;;;;12.49;100.00;101120.69;5014315;28;20179;-78
2023/07/26 01:07:27;;;;;;;;;;;;;;;12.50;100.00;101118.84;4988201;28;19947;-78
2023/07/26 01:10:11;;;;;;;;;;;;;;;12.46;100.00;101118.25;5033321;28;20380;-78
2023/07/26 01:12:37;;;;;;;;;;;;;;;12.40;100.00;101125.00;5012660;28;20454;-78
2023/07/26 01:15:05;;;;;;;;;;;;;;;12.37;100.00;101111.78;5031117;28;19991;-79
2023/07/26 01:17:31;;;;;;;;;;;;;;;12.31;100.00;101117.66;5012049;28;19925;-79
2023/07/26 01:19:56;;;;;;;;;;;;;;;12.39;100.00;101117.00;5018965;28;19966;-78
2023/07/26 01:22:21;;;;;;;;;;;;;;;12.47;100.00;101114.56;5025705;28;19979;-78
2023/07/26 01:24:46;;;;;;;;;;;;;;;12.55;100.00;101122.88;5012856;28;19924;-78
2023/07/26 01:27:12;;;;;;;;;;;;;;;12.60;100.00;101117.94;4988942;28;20557;-78
2023/07/26 01:29:37;;;;;;;;;;;;;;;12.55;100.00;101119.31;5013685;28;20403;-78
2023/07/26 01:32:02;;;;;;;;;;;;;;;12.50;100.00;101121.53;5027374;28;20026;-78
2023/07/26 01:34:27;;;;;;;;;;;;;;;12.44;100.00;101114.81;5011484;28;20021;-78
2023/07/26 01:36:53;;;;;;;;;;;;;;;12.39;100.00;101114.31;5011952;28;19929;-78
2023/07/26 01:39:18;;;;;;;;;;;;;;;12.37;100.00;101114.47;5000297;28;20363;-78
2023/07/26 01:41:43;;;;;;;;;;;;;;;12.33;100.00;101114.81;5019211;28;20311;-78
2023/07/26 01:44:09;;;;;;;;;;;;;;;12.25;100.00;101115.44;5018774;28;19928;-78
2023/07/26 01:46:34;;;;;;;;;;;;;;;12.21;100.00;101117.53;5020748;28;19928;-78
2023/07/26 01:48:59;;;;;;;;;;;;;;;12.16;100.00;101122.44;5022522;28;19927;-78
2023/07/26 01:51:25;;;;;;;;;;;;;;;12.10;100.00;101121.09;5002898;28;19917;-78
2023/07/26 01:53:50;;;;;;;;;;;;;;;12.07;100.00;101125.84;5001929;28;19987;-78
2023/07/26 01:56:15;;;;;;;;;;;;;;;12.00;100.00;101120.09;5017372;28;19932;-78
2023/07/26 01:58:40;;;;;;;;;;;;;;;11.94;100.00;101117.84;5017168;28;19921;-78
2023/07/26 02:01:05;;;;;;;;;;;;;;;11.87;100.00;101125.56;5015315;28;20312;-78
2023/07/26 02:03:31;;;;;;;;;;;;;;;11.76;100.00;101121.03;5037981;28;20348;-78
2023/07/26 02:05:56;;;;;;;;;;;;;;;11.65;100.00;101126.41;5019148;28;20361;-77
2023/07/26 02:08:21;;;;;;;;;;;;;;;11.59;100.00;101118.81;5005525;28;19928;-78
2023/07/26 02:10:47;;;;;;;;;;;;;;;11.54;100.00;101120.03;4999531;28;19921;-77
2023/07/26 02:13:12;;;;;;;;;;;;;;;11.55;100.00;101127.13;5001114;28;19925;-78
2023/07/26 02:15:37;;;;;;;;;;;;;;;11.59;100.00;101122.34;5004742;28;19921;-78
2023/07/26 02:18:02;;;;;;;;;;;;;;;11.62;100.00;101110.50;5022344;28;19925;-78
2023/07/26 02:20:28;;;;;;;;;;;;;;;11.49;100.00;101113.31;5032909;28;19936;-78
2023/07/26 02:22:53;;;;;;;;;;;;;;;11.44;100.00;101113.63;5018981;28;19921;-78
2023/07/26 02:25:18;;;;;;;;;;;;;;;11.43;100.00;101111.06;5016253;28;19924;-79
2023/07/26 02:27:44;;;;;;;;;;;;;;;11.38;100.00;101108.75;4985862;28;19928;-78
2023/07/26 02:30:09;;;;;;;;;;;;;;;11.24;100.00;101112.50;4997999;28;20226;-78
2023/07/26 02:32:34;;;;;;;;;;;;;;;11.15;100.00;101110.50;4997865;28;19944;-78
2023/07/26 02:34:59;;;;;;;;;;;;;;;11.06;100.00;101107.53;4988152;28;19928;-78
2023/07/26 02:37:25;;;;;;;;;;;;;;;10.97;100.00;101108.25;5031939;28;20363;-78
2023/07/26 02:39:50;;;;;;;;;;;;;;;10.95;100.00;101110.19;4997120;28;20668;-78
2023/07/26 02:42:16;;;;;;;;;;;;;;;10.93;100.00;101107.59;5016352;28;20117;-78
2023/07/26 02:44:41;;;;;;;;;;;;;;;10.82;100.00;101102.19;4982964;28;19920;-79
2023/07/26 02:47:06;;;;;;;;;;;;;;;10.76;100.00;101108.00;5016893;28;20370;-78
2023/07/26 02:49:31;;;;;;;;;;;;;;;10.75;100.00;101108.97;5013555;28;20352;-79
2023/07/26 02:51:57;;;;;;;;;;;;;;;10.68;100.00;101107.72;5001432;28;20901;-78
2023/07/26 02:54:22;;;;;;;;;;;;;;;10.67;100.00;101114.94;4998567;28;19925;-78
2023/07/26 02:56:47;;;;;;;;;;;;;;;10.71;100.00;101113.75;5004892;28;19925;-79
2023/07/26 02:59:12;;;;;;;;;;;;;;;10.74;100.00;101110.78;4999988;28;20054;-77
2023/07/26 03:01:38;;;;;;;;;;;;;;;10.73;100.00;101103.72;5013502;28;20190;-78
2023/07/26 03:04:03;;;;;;;;;;;;;;;10.70;100.00;101111.16;5001099;28;19982;-79
2023/07/26 03:06:28;;;;;;;;;;;;;;;10.68;100.00;101110.41;5012674;28;19921;-79
2023/07/26 03:08:53;;;;;;;;;;;;;;;10.63;100.00;101108.91;5002203;28;19920;-79
2023/07/26 03:11:19;;;;;;;;;;;;;;;10.61;100.00;101110.84;4998071;28;19921;-79
2023/07/26 03:13:44;;;;;;;;;;;;;;;10.58;100.00;101108.41;4983697;28;19928;-79
2023/07/26 03:16:09;;;;;;;;;;;;;;;10.53;100.00;101112.38;5018889;28;19968;-78
2023/07/26 03:18:34;;;;;;;;;;;;;;;10.46;100.00;101104.78;5015829;28;19982;-79
2023/07/26 03:21:00;;;;;;;;;;;;;;;10.44;100.00;101113.94;5018406;28;19999;-79
2023/07/26 03:23:25;;;;;;;;;;;;;;;10.42;100.00;101111.38;5019441;28;20390;-78
2023/07/26 03:25:50;;;;;;;;;;;;;;;10.36;100.00;101109.94;5001543;28;20368;-79
2023/07/26 03:28:15;;;;;;;;;;;;;;;10.34;100.00;101116.38;5013529;28;20366;-79
2023/07/26 03:30:41;;;;;;;;;;;;;;;10.29;100.00;101122.09;4999154;28;19921;-79
2023/07/26 03:33:07;;;;;;;;;;;;;;;10.25;100.00;101125.09;5014546;28;19920;-78
2023/07/26 03:35:32;;;;;;;;;;;;;;;10.14;100.00;101125.88;4987441;28;19957;-79
2023/07/26 03:37:57;;;;;;;;;;;;;;;10.11;100.00;101132.31;4997872;28;20066;-80
2023/07/26 03:40:23;;;;;;;;;;;;;;;10.06;100.00;101131.78;5031124;28;20397;-79
2023/07/26 03:42:48;;;;;;;;;;;;;;;10.04;100.00;101134.59;4998368;28;19931;-79
2023/07/26 03:45:13;;;;;;;;;;;;;;;10.03;100.00;101132.00;5017620;28;20380;-79
2023/07/26 03:47:38;;;;;;;;;;;;;;;10.05;100.00;101133.63;5014097;28;20422;-79
2023/07/26 03:50:04;;;;;;;;;;;;;;;10.07;100.00;101130.81;4998147;28;19921;-79
2023/07/26 03:52:29;;;;;;;;;;;;;;;10.07;100.00;101125.47;4999291;28;19944;-82
2023/07/26 03:54:54;;;;;;;;;;;;;;;10.05;100.00;101130.06;5027434;28;20295;-80
2023/07/26 03:57:20;;;;;;;;;;;;;;;9.99;100.00;101134.06;5015144;28;19925;-81
2023/07/26 03:59:45;;;;;;;;;;;;;;;9.93;100.00;101137.16;5017669;28;20248;-81
2023/07/26 04:02:10;;;;;;;;;;;;;;;9.91;100.00;101123.00;4983545;28;19921;-79
2023/07/26 04:04:35;;;;;;;;;;;;;;;9.93;100.00;101129.13;5018398;28;20389;-81
2023/07/26 04:07:02;;;;;;;;;;;;;;;9.93;100.00;101125.59;5003026;28;19921;-79
2023/07/26 04:09:27;;;;;;;;;;;;;;;9.97;100.00;101122.56;5002133;28;20291;-79
2023/07/26 04:11:53;;;;;;;;;;;;;;;10.00;100.00;101125.03;5020935;28;19920;-79
2023/07/26 04:14:18;;;;;;;;;;;;;;;10.00;100.00;101127.72;5031973;28;19955;-78
2023/07/26 04:16:44;;;;;;;;;;;;;;;9.94;100.00;101121.91;5020819;28;20479;-79
2023/07/26 04:19:09;;;;;;;;;;;;;;;9.92;100.00;101129.25;5017060;28;20083;-78
2023/07/26 04:21:34;;;;;;;;;;;;;;;9.98;100.00;101128.78;4999610;28;19948;-78
2023/07/26 04:23:59;;;;;;;;;;;;;;;10.04;100.00;101125.66;5028154;28;20028;-79
2023/07/26 04:26:24;;;;;;;;;;;;;;;10.10;100.00;101129.75;4989016;28;20011;-79
2023/07/26 04:28:50;;;;;;;;;;;;;;;10.06;100.00;101129.94;5015881;28;20004;-78
2023/07/26 04:31:15;;;;;;;;;;;;;;;10.14;100.00;101126.75;5037536;28;20027;-79
2023/07/26 04:33:40;;;;;;;;;;;;;;;10.17;100.00;101131.03;5002553;28;20007;-79
2023/07/26 04:36:05;;;;;;;;;;;;;;;10.15;100.00;101123.09;5023882;28;20029;-79
2023/07/26 04:38:31;;;;;;;;;;;;;;;10.12;100.00;101139.41;5030698;28;20008;-79
2023/07/26 04:40:56;;;;;;;;;;;;;;;10.12;100.00;101133.16;5032717;28;20303;-79
2023/07/26 04:43:21;;;;;;;;;;;;;;;10.15;100.00;101133.81;5016481;28;19921;-79
2023/07/26 04:45:50;;;;;;;;;;;;;;;10.19;100.00;101135.34;5003305;28;20326;-79
2023/07/26 04:48:16;;;;;;;;;;;;;;;10.29;100.00;101127.47;5030421;28;19971;-79
2023/07/26 04:50:41;;;;;;;;;;;;;;;10.42;100.00;101134.66;5014528;28;20422;-79
2023/07/26 04:53:06;;;;;;;;;;;;;;;10.42;100.00;101127.47;4991810;28;19921;-79
2023/07/26 04:55:32;;;;;;;;;;;;;;;10.45;100.00;101121.00;5000263;28;19921;-78
2023/07/26 04:57:57;;;;;;;;;;;;;;;10.57;100.00;101130.88;5018173;28;19936;-78
2023/07/26 05:00:22;;;;;;;;;;;;;;;10.74;100.00;101136.81;4982855;28;19925;-79
2023/07/26 05:02:48;;;;;;;;;;;;;;;10.95;100.00;101142.44;5030092;28;19943;-79
2023/07/26 05:05:13;;;;;;;;;;;;;;;11.14;100.00;101146.41;5010079;28;20364;-78
2023/07/26 05:07:38;;;;;;;;;;;;;;;11.31;100.00;101150.50;5031242;28;19960;-78
2023/07/26 05:10:03;;;;;;;;;;;;;;;11.44;100.00;101145.06;4997822;28;20050;-77
2023/07/26 05:12:29;;;;;;;;;;;;;;;11.54;100.00;101144.22;5036038;28;19960;-78
2023/07/26 05:14:54;;;;;;;;;;;;;;;11.46;100.00;101135.03;5010911;28;20019;-78
2023/07/26 05:17:19;;;;;;;;;;;;;;;11.39;100.00;101148.06;4983248;28;19929;-78
2023/07/26 05:19:44;;;;;;;;;;;;;;;11.41;100.00;101148.81;4998034;28;19936;-78
2023/07/26 05:22:10;;;;;;;;;;;;;;;11.43;100.00;101140.66;5012862;28;20459;-78
2023/07/26 05:24:36;;;;;;;;;;;;;;;11.42;100.00;101141.63;5010536;28;19932;-78
2023/07/26 05:27:01;;;;;;;;;;;;;;;11.39;100.00;101135.50;5016220;28;19921;-78
2023/07/26 05:29:26;;;;;;;;;;;;;;;11.41;100.00;101143.44;5025598;28;19962;-77
2023/07/26 05:31:51;;;;;;;;;;;;;;;11.39;100.00;101138.19;5028309;28;19956;-78
2023/07/26 05:34:17;;;;;;;;;;;;;;;11.39;100.00;101145.38;5025340;28;19925;-78
2023/07/26 05:36:42;;;;;;;;;;;;;;;11.47;100.00;101147.50;5010982;28;19929;-78
2023/07/26 05:39:07;;;;;;;;;;;;;;;11.58;100.00;101144.00;5005878;28;19943;-78
2023/07/26 05:41:32;;;;;;;;;;;;;;;11.69;100.00;101149.38;5012518;28;20249;-77
2023/07/26 05:44:00;;;;;;;;;;;;;;;11.85;100.00;101140.97;5012710;28;19925;-77
2023/07/26 05:46:26;;;;;;;;;;;;;;;12.03;100.00;101136.00;5033362;28;19952;-78
2023/07/26 05:48:51;;;;;;;;;;;;;;;12.16;100.00;101138.56;5031695;28;20427;-79
2023/07/26 05:51:16;;;;;;;;;;;;;;;12.27;100.00;101141.28;5021029;28;19931;-80
2023/07/26 05:53:41;;;;;;;;;;;;;;;12.44;100.00;101134.53;5020299;28;19913;-80
2023/07/26 05:56:07;;;;;;;;;;;;;;;12.68;100.00;101143.41;5036703;28;19975;-76
2023/07/26 05:58:32;;;;;;;;;;;;;;;12.87;100.00;101137.38;5036685;28;20250;-77
2023/07/26 06:00:57;;;;;;;;;;;;;;;12.96;100.00;101133.03;5016809;28;19925;-82
2023/07/26 06:03:23;;;;;;;;;;;;;;;13.06;100.00;101136.69;5021000;28;20017;-79
2023/07/26 06:05:48;;;;;;;;;;;;;;;13.15;100.00;101140.44;5021097;28;20053;-80
2023/07/26 06:08:14;;;;;;;;;;;;;;;13.30;100.00;101154.47;5019459;28;19959;-77
2023/07/26 06:10:39;;;;;;;;;;;;;;;13.37;100.00;101149.41;4999098;28;20002;-78
2023/07/26 06:13:04;;;;;;;;;;;;;;;13.43;100.00;101157.88;5000895;28;19947;-76
2023/07/26 06:15:30;;;;;;;;;;;;;;;13.53;100.00;101157.09;5018054;28;19917;-79
2023/07/26 06:17:55;;;;;;;;;;;;;;;13.66;100.00;101168.53;5015498;28;19942;-76
2023/07/26 06:20:20;;;;;;;;;;;;;;;13.79;100.00;101163.78;5018451;28;20015;-77
2023/07/26 06:22:47;;;;;;;;;;;;;;;13.84;100.00;101162.56;5000066;28;20008;-80
2023/07/26 06:25:12;;;;;;;;;;;;;;;13.87;100.00;101159.59;5030865;28;20402;-77
2023/07/26 06:27:38;;;;;;;;;;;;;;;14.00;100.00;101157.50;5001942;28;20036;-76
2023/07/26 06:30:03;;;;;;;;;;;;;;;14.31;100.00;101160.22;5018253;28;19920;-77
2023/07/26 06:32:28;;;;;;;;;;;;;;;14.43;100.00;101176.34;5014479;28;20507;-78
2023/07/26 06:34:53;;;;;;;;;;;;;;;14.63;100.00;101180.81;5017656;28;20035;-78
2023/07/26 06:37:19;;;;;;;;;;;;;;;14.67;100.00;101184.06;5013351;28;19925;-78
2023/07/26 06:39:44;;;;;;;;;;;;;;;14.67;100.00;101184.06;5000412;28;20312;-80
2023/07/26 06:42:09;;;;;;;;;;;;;;;14.64;100.00;101187.91;5004746;28;20273;-81
2023/07/26 06:44:35;;;;;;;;;;;;;;;14.52;100.00;101187.16;5001886;28;19983;-80
2023/07/26 06:47:00;;;;;;;;;;;;;;;14.46;100.00;101181.44;5018352;28;19917;-84
2023/07/26 06:49:25;;;;;;;;;;;;;;;14.44;100.00;101188.81;4998324;28;20146;-83
2023/07/26 06:51:51;;;;;;;;;;;;;;;14.30;100.00;101192.78;5033269;28;19921;-79
2023/07/26 06:54:16;;;;;;;;;;;;;;;14.29;100.00;101191.06;5002814;28;19920;-79
2023/07/26 06:56:41;;;;;;;;;;;;;;;14.34;100.00;101192.34;5010509;28;19925;-79
2023/07/26 06:59:11;;;;;;;;;;;;;;;14.29;100.00;101191.91;5008078;28;19921;-79
2023/07/26 07:01:36;;;;;;;;;;;;;;;14.28;100.00;101192.06;4999663;28;19921;-78
2023/07/26 07:04:01;;;;;;;;;;;;;;;14.08;100.00;101197.34;4998666;28;19917;-78
2023/07/26 07:06:27;;;;;;;;;;;;;;;14.05;100.00;101203.00;5031031;28;20264;-79
2023/07/26 07:08:52;;;;;;;;;;;;;;;14.00;100.00;101216.91;4998365;28;20012;-81
2023/07/26 07:11:17;;;;;;;;;;;;;;;14.02;100.00;101209.53;4997170;28;20015;-80
2023/07/26 07:13:42;;;;;;;;;;;;;;;14.06;100.00;101215.50;5014343;28;20023;-80
2023/07/26 07:16:08;;;;;;;;;;;;;;;14.01;100.00;101213.22;5009622;28;20086;-81
2023/07/26 07:18:35;;;;;;;;;;;;;;;14.01;100.00;101217.78;5002919;28;20205;-80
2023/07/26 07:21:00;;;;;;;;;;;;;;;14.01;100.00;101231.28;5014612;28;20251;-80
2023/07/26 07:23:27;;;;;;;;;;;;;;;14.01;100.00;101244.78;5015633;28;20103;-81
2023/07/26 07:25:52;;;;;;;;;;;;;;;13.97;100.00;101265.75;5031363;28;19924;-82
2023/07/26 07:28:17;;;;;;;;;;;;;;;13.90;100.00;101260.03;5013641;28;20062;-81
2023/07/26 07:30:42;;;;;;;;;;;;;;;13.79;100.00;101260.94;5030894;28;20015;-81
2023/07/26 07:33:07;;;;;;;;;;;;;;;13.76;100.00;101258.50;5003219;28;20008;-81
2023/07/26 07:35:33;;;;;;;;;;;;;;;13.66;100.00;101265.66;5017227;28;19985;-81
2023/07/26 07:37:58;;;;;;;;;;;;;;;13.65;100.00;101266.66;5031149;28;19933;-80
2023/07/26 07:40:23;;;;;;;;;;;;;;;13.62;100.00;101270.47;5021047;28;20033;-80
2023/07/26 07:42:48;;;;;;;;;;;;;;;13.57;100.00;101259.19;5016214;28;19944;-80
2023/07/26 07:45:14;;;;;;;;;;;;;;;13.47;100.00;101242.09;5011075;28;20139;-82
2023/07/26 07:47:39;;;;;;;;;;;;;;;13.68;100.00;101260.16;5016764;28;19925;-82
2023/07/26 07:50:04;;;;;;;;;;;;;;;13.75;100.00;101262.19;5014506;28;19925;-82
2023/07/26 07:52:30;;;;;;;;;;;;;;;13.79;100.00;101258.25;5035331;28;19944;-82
2023/07/26 07:54:55;;;;;;;;;;;;;;;13.87;100.00;101254.91;4987065;28;19927;-82
2023/07/26 07:57:21;;;;;;;;;;;;;;;13.98;100.00;101261.22;5016108;28;19925;-82
2023/07/26 07:59:46;;;;;;;;;;;;;;;14.04;100.00;101263.38;5015922;28;19928;-82
2023/07/26 08:02:11;;;;;;;;;;;;;;;14.12;100.00;101268.97;5023376;28;20283;-82
2023/07/26 08:04:38;;;;;;;;;;;;;;;14.22;100.00;101280.72;5004505;28;20024;-83
2023/07/26 08:07:03;;;;;;;;;;;;;;;14.35;100.00;101271.53;5024747;28;20008;-83
2023/07/26 08:09:28;;;;;;;;;;;;;;;14.38;100.00;101266.72;5028315;28;20011;-84
2023/07/26 08:11:54;;;;;;;;;;;;;;;14.57;100.00;101267.81;5030138;28;19939;-82
2023/07/26 08:14:19;;;;;;;;;;;;;;;14.80;100.00;101268.50;5028768;28;20006;-82
2023/07/26 08:16:45;;;;;;;;;;;;;;;14.95;100.00;101266.28;5017908;28;19937;-83
2023/07/26 08:19:10;;;;;;;;;;;;;;;14.97;100.00;101261.56;5018087;28;19925;-84
2023/07/26 08:21:35;;;;;;;;;;;;;;;15.18;100.00;101254.38;5025233;28;21765;-82
2023/07/26 08:24:00;;;;;;;;;;;;;;;15.34;100.00;101252.00;5000718;28;20450;-80
2023/07/26 08:26:25;;;;;;;;;;;;;;;15.59;100.00;101255.13;5038296;28;20458;-80
2023/07/26 08:28:51;;;;;;;;;;;;;;;15.72;100.00;101246.72;5018988;28;20532;-80
2023/07/26 08:31:16;;;;;;;;;;;;;;;15.84;100.00;101240.13;5022618;28;20243;-80
2023/07/26 08:33:41;;;;;;;;;;;;;;;15.91;100.00;101247.72;5023155;28;20366;-85
2023/07/26 08:36:07;;;;;;;;;;;;;;;15.87;100.00;101237.19;5037812;28;20618;-81
2023/07/26 08:38:35;;;;;;;;;;;;;;;15.78;100.00;101232.59;4988425;28;20374;-81
2023/07/26 08:41:00;;;;;;;;;;;;;;;15.44;100.00;101238.47;5027119;28;19921;-79
2023/07/26 08:43:27;;;;;;;;;;;;;;;15.74;100.00;101239.31;5034706;28;20914;-80
2023/07/26 08:45:52;;;;;;;;;;;;;;;15.82;100.00;101239.44;5008395;28;20367;-83
2023/07/26 08:48:17;;;;;;;;;;;;;;;16.07;100.00;101233.59;5034117;28;19928;-79
2023/07/26 08:50:42;;;;;;;;;;;;;;;16.07;100.00;101233.59;5039645;28;19977;-76
2023/07/26 08:53:08;;;;;;;;;;;;;;;16.10;100.00;101234.13;5014102;28;19920;-77
2023/07/26 08:55:33;;;;;;;;;;;;;;;16.37;100.00;101235.19;5017739;28;19964;-77
2023/07/26 08:57:59;;;;;;;;;;;;;;;16.55;100.00;101231.72;5032431;28;19925;-79
2023/07/26 09:00:25;;;;;;;;;;;;;;;16.89;100.00;101223.84;5015586;28;19925;-78
2023/07/26 09:02:50;;;;;;;;;;;;;;;16.84;100.00;101218.00;5015972;28;19928;-78
2023/07/26 09:05:16;;;;;;;;;;;;;;;17.07;100.00;101214.91;4990465;28;19928;-76
2023/07/26 09:07:41;;;;;;;;;;;;;;;17.21;100.00;101208.97;5022425;28;19990;-78
2023/07/26 09:10:06;;;;;;;;;;;;;;;17.36;100.00;101208.41;5020102;28;19925;-79
2023/07/26 09:12:31;;;;;;;;;;;;;;;17.53;100.00;101207.53;5033578;28;20414;-78
2023/07/26 09:14:57;;;;;;;;;;;;;;;17.81;100.00;101202.00;5035545;28;19925;-77
2023/07/26 09:17:33;;;;;;;;;;;;;;;17.90;100.00;101204.78;5016325;28;19935;-77
2023/07/26 09:19:58;;;;;;;;;;;;;;;17.46;100.00;101201.06;5034836;28;19972;-78
2023/07/26 09:22:23;;;;;;;;;;;;;;;17.32;100.00;101190.72;5016338;28;20460;-78
2023/07/26 09:24:49;;;;;;;;;;;;;;;17.16;100.00;101197.72;5012096;28;19913;-80
2023/07/26 09:27:14;;;;;;;;;;;;;;;17.60;100.00;101187.91;5037330;28;19921;-81
2023/07/26 09:29:40;;;;;;;;;;;;;;;18.01;100.00;101188.22;5015381;28;19921;-78
2023/07/26 09:32:06;;;;;;;;;;;;;;;17.96;100.00;101179.69;5015192;28;20386;-76
2023/07/26 09:34:31;;;;;;;;;;;;;;;17.98;100.00;101181.25;5037209;28;19932;-80
2023/07/26 09:36:57;;;;;;;;;;;;;;;18.10;100.00;101179.13;5019404;28;19925;-79
2023/07/26 09:39:24;;;;;;;;;;;;;;;18.54;100.00;101180.88;5018507;28;19921;-81
2023/07/26 09:41:50;;;;;;;;;;;;;;;18.76;100.00;101170.41;5013999;28;19943;-80
2023/07/26 09:44:16;;;;;;;;;;;;;;;19.26;100.00;101170.53;5013893;28;20302;-80
2023/07/26 09:46:48;;;;;;;;;;;;;;;19.63;100.00;101180.06;5002892;28;19921;-80
2023/07/26 09:49:14;;;;;;;;;;;;;;;19.64;100.00;101168.16;5016241;28;19927;-77
2023/07/26 09:51:39;;;;;;;;;;;;;;;19.35;100.00;101169.50;5035244;28;19917;-79
2023/07/26 09:54:04;;;;;;;;;;;;;;;19.51;100.00;101175.97;5020077;28;20438;-75
2023/07/26 09:56:31;;;;;;;;;;;;;;;19.34;100.00;101167.81;5015728;28;19925;-80
2023/07/26 09:58:57;;;;;;;;;;;;;;;19.21;100.00;101168.31;5039741;28;20058;-79
2023/07/26 10:01:22;;;;;;;;;;;;;;;19.25;100.00;101177.84;5019844;28;19928;-77
2023/07/26 10:03:51;;;;;;;;;;;;;;;19.20;100.00;101179.38;5001929;28;19964;-78
2023/07/26 10:06:16;;;;;;;;;;;;;;;18.87;100.00;101180.97;4999660;28;19921;-78
2023/07/26 10:08:42;;;;;;;;;;;;;;;18.52;100.00;101168.47;5023183;28;19916;-78
2023/07/26 10:11:07;;;;;;;;;;;;;;;18.38;100.00;101168.06;5022810;28;19947;-78
2023/07/26 10:13:32;;;;;;;;;;;;;;;18.26;100.00;101163.94;5038113;28;19921;-78
2023/07/26 10:15:57;;;;;;;;;;;;;;;18.01;100.00;101176.53;5036674;28;19963;-76
2023/07/26 10:18:23;;;;;;;;;;;;;;;17.84;100.00;101185.38;5017593;28;20354;-77
2023/07/26 10:20:48;;;;;;;;;;;;;;;17.75;100.00;101180.06;4996555;28;20701;-76
2023/07/26 10:23:13;;;;;;;;;;;;;;;17.76;100.00;101184.47;5011315;28;19965;-77
2023/07/26 10:25:39;;;;;;;;;;;;;;;17.75;100.00;101177.34;5011821;28;19968;-77
2023/07/26 10:28:04;;;;;;;;;;;;;;;17.65;100.00;101174.72;5010398;28;19948;-79
2023/07/26 10:30:30;;;;;;;;;;;;;;;17.71;100.00;101178.66;5024783;28;19967;-77
2023/07/26 10:32:55;;;;;;;;;;;;;;;18.39;100.00;101171.66;5008900;28;19936;-76
2023/07/26 10:35:27;;;;;;;;;;;;;;;18.91;100.00;101162.44;5012465;28;20469;-77
2023/07/26 10:37:52;;;;;;;;;;;;;;;19.45;100.00;101162.03;4996398;28;20237;-76
2023/07/26 10:40:30;;;;;;;;;;;;;;;19.96;100.00;101168.28;5029385;28;20367;-78
2023/07/26 10:42:56;;;;;;;;;;;;;;;20.46;100.00;101158.94;5008211;28;20110;-79
2023/07/26 10:45:42;;;;;;;;;;;;;;;20.76;100.00;101152.84;5032428;28;19920;-78
2023/07/26 10:48:26;;;;;;;;;;;;;;;20.34;100.00;101155.75;4996405;28;19921;-80
2023/07/26 10:50:54;;;;;;;;;;;;;;;18.99;100.00;101148.03;5003048;28;20603;-83
2023/07/26 10:53:36;;;;;;;;;;;;;;;18.88;100.00;101155.47;5010811;28;20384;-78
2023/07/26 10:56:08;;;;;;;;;;;;;;;18.54;100.00;101164.56;5007974;28;20364;-76
2023/07/26 10:58:33;;;;;;;;;;;;;;;18.17;100.00;101170.34;5031547;28;19925;-75
2023/07/26 11:01:03;;;;;;;;;;;;;;;17.97;100.00;101163.22;4993517;28;19921;-78
2023/07/26 11:03:28;;;;;;;;;;;;;;;17.75;100.00;101170.03;5012941;28;20274;-79
2023/07/26 11:05:55;;;;;;;;;;;;;;;18.31;100.00;101168.88;5009869;28;19917;-77
2023/07/26 11:08:20;;;;;;;;;;;;;;;19.05;100.00;101166.41;4995758;28;20364;-80
2023/07/26 11:10:49;;;;;;;;;;;;;;;19.70;100.00;101164.75;5006876;28;19932;-84
2023/07/26 11:13:16;;;;;;;;;;;;;;;20.59;100.00;101171.16;4997678;28;19921;-77
2023/07/26 11:15:45;;;;;;;;;;;;;;;20.36;100.00;101169.22;4989151;28;19936;-78
2023/07/26 11:18:10;;;;;;;;;;;;;;;21.24;100.00;101159.00;5013245;28;19922;-78
2023/07/26 11:20:39;;;;;;;;;;;;;;;21.76;100.00;101164.75;5013414;28;19931;-78
2023/07/26 11:23:18;;;;;;;;;;;;;;;21.94;100.00;101161.66;5013718;28;20103;-85
2023/07/26 11:25:44;;;;;;;;;;;;;;;21.71;90.01;101162.56;4982457;28;20080;-78
2023/07/26 11:28:10;;;;;;;;;;;;;;;22.09;88.68;101153.47;5016357;28;19925;-81
2023/07/26 11:30:35;;;;;;;;;;;;;;;22.10;81.57;101157.91;4993034;28;19924;-76
2023/07/26 11:33:00;;;;;;;;;;;;;;;23.07;85.44;101158.69;4997515;28;20340;-85
2023/07/26 11:35:26;;;;;;;;;;;;;;;23.28;82.66;101165.22;5027782;28;19921;-78
2023/07/26 11:37:51;;;;;;;;;;;;;;;23.13;76.38;101162.53;5017928;28;20386;-76
2023/07/26 11:40:17;;;;;;;;;;;;;;;22.72;77.52;101168.63;5032815;28;20427;-78
2023/07/26 11:42:42;;;;;;;;;;;;;;;21.67;80.90;101174.03;5002752;28;19929;-80
2023/07/26 11:45:07;;;;;;;;;;;;;;;21.61;76.03;101181.09;5009373;28;20325;-78
2023/07/26 11:47:36;;;;;;;;;;;;;;;21.78;73.25;101178.22;4987952;28;20354;-79
2023/07/26 11:50:02;;;;;;;;;;;;;;;21.91;70.53;101174.84;5030338;28;19953;-76
2023/07/26 11:52:28;;;;;;;;;;;;;;;22.17;64.48;101177.13;5012276;28;20122;-80
2023/07/26 11:54:58;;;;;;;;;;;;;;;22.90;58.59;101171.78;5027100;28;20031;-77
2023/07/26 11:57:25;;;;;;;;;;;;;;;23.99;62.29;101165.38;5012206;28;19933;-81
2023/07/26 11:59:50;;;;;;;;;;;;;;;24.53;56.10;101178.34;5027385;28;20008;-76
2023/07/26 12:02:15;;;;;;;;;;;;;;;24.04;54.25;101180.22;5008105;28;20475;-78
2023/07/26 12:04:40;;;;;;;;;;;;;;;23.73;55.35;101175.09;5025736;28;20331;-79
2023/07/26 12:07:09;;;;;;;;;;;;;;;22.70;56.90;101187.94;4998679;28;20365;-77
2023/07/26 12:09:43;;;;;;;;;;;;;;;21.96;55.46;101189.66;5029824;28;20075;-78
2023/07/26 12:12:08;;;;;;;;;;;;;;;22.91;52.83;101180.81;4990929;28;19921;-85
2023/07/26 12:14:33;;;;;;;;;;;;;;;23.28;50.16;101187.16;5013176;28;19928;-79
2023/07/26 12:16:59;;;;;;;;;;;;;;;24.43;48.09;101183.38;5000998;28;19925;-82
2023/07/26 12:19:25;;;;;;;;;;;;;;;24.94;44.78;101175.78;4998971;28;20417;-78
2023/07/26 12:21:50;;;;;;;;;;;;;;;25.72;43.12;101174.41;5003611;28;19970;-81